Time;durP1;ratioP1;P1;durP2;ratioP2;P2;SDS_P1;SDS_P2;PMS_P1;PMS_P2;Temp;Humidity;BMP_temperature;BMP_pressure;BME280_temperature;BME280_humidity;BME280_pressure;Samples;Min_cycle;Max_cycle;Signal;HPM_P1;HPM_P2
2022/11/08 00:01:42;;;;;;;6.27;2.60;;;8.80;99.90;;;9.71;100.00;97963.06;4944182;28;21009;-85
2022/11/08 00:04:15;;;;;;;10.93;3.57;;;8.80;99.90;;;9.67;100.00;97964.44;4982623;28;1193634;-86
2022/11/08 00:15:05;;;;;;;27.00;3.90;;;8.80;99.90;;;9.59;100.00;97968.75;5018942;28;20462;-85
2022/11/08 00:17:34;;;;;;;29.63;5.20;;;8.70;99.90;;;9.65;100.00;97967.22;5020137;28;20557;-85
2022/11/08 00:20:06;;;;;;;14.07;4.40;;;8.80;99.90;;;9.66;100.00;97973.25;5019325;28;20888;-85
2022/11/08 00:22:35;;;;;;;34.83;4.67;;;8.80;99.90;;;9.65;100.00;97962.00;5021139;28;20470;-85
2022/11/08 00:25:04;;;;;;;16.07;5.07;;;8.80;99.90;;;9.61;100.00;97956.31;5017672;28;20474;-85
2022/11/08 00:27:32;;;;;;;20.60;3.67;;;8.70;99.90;;;9.59;100.00;97962.72;5017037;28;20602;-85
2022/11/08 00:30:01;;;;;;;14.13;4.13;;;8.70;99.90;;;9.56;100.00;97963.09;5019479;28;20561;-85
2022/11/08 00:32:29;;;;;;;11.17;4.20;;;8.60;99.90;;;9.60;100.00;97959.94;5018723;28;20543;-85
2022/11/08 00:34:58;;;;;;;18.10;3.67;;;8.70;99.90;;;9.65;100.00;97948.16;5019435;28;20466;-85
2022/11/08 00:37:28;;;;;;;15.77;4.70;;;8.80;99.90;;;9.62;100.00;97951.91;5017648;28;20568;-84
2022/11/08 00:39:56;;;;;;;25.27;4.33;;;8.80;99.90;;;9.59;100.00;97950.50;5018150;28;20953;-85
2022/11/08 00:42:26;;;;;;;9.03;4.97;;;8.70;99.90;;;9.64;100.00;97949.13;5018396;28;20971;-85
2022/11/08 00:44:54;;;;;;;12.20;4.70;;;8.80;99.90;;;9.65;100.00;97945.53;5019880;28;20494;-85
2022/11/08 00:47:23;;;;;;;13.23;4.20;;;8.80;99.90;;;9.66;100.00;97947.94;5018696;28;20497;-85
2022/11/08 00:49:52;;;;;;;24.23;4.80;;;8.80;99.90;;;9.67;100.00;97940.94;5019348;28;21006;-85
2022/11/08 00:52:21;;;;;;;18.93;5.27;;;8.80;99.90;;;9.67;100.00;97943.53;5018845;28;20574;-85
2022/11/08 00:54:54;;;;;;;18.83;5.07;;;8.90;99.90;;;9.65;100.00;97933.28;5019946;28;20518;-85
2022/11/08 00:57:23;;;;;;;19.67;5.30;;;8.90;99.90;;;9.68;100.00;97935.53;5019971;28;20512;-85
2022/11/08 01:00:13;;;;;;;21.63;6.57;;;8.90;99.90;;;9.67;100.00;97933.09;5017619;28;20481;-85
2022/11/08 01:02:42;;;;;;;29.50;5.17;;;8.90;99.90;;;9.68;100.00;97934.72;5019550;28;20899;-84
2022/11/08 01:05:10;;;;;;;20.20;5.40;;;8.90;99.90;;;9.64;100.00;97920.41;5018918;28;20475;-85
2022/11/08 01:07:39;;;;;;;12.07;5.37;;;8.80;99.90;;;9.61;100.00;97925.00;5018519;28;20578;-85
2022/11/08 01:10:10;;;;;;;9.63;5.27;;;8.80;99.90;;;9.59;100.00;97932.22;5020017;28;20532;-85
2022/11/08 01:12:38;;;;;;;13.07;5.33;;;8.70;99.90;;;9.61;100.00;97935.44;5016085;28;20488;-85
2022/11/08 01:15:08;;;;;;;14.50;5.80;;;8.80;99.90;;;9.64;100.00;97934.28;5018831;28;20475;-84
2022/11/08 01:17:37;;;;;;;15.87;6.07;;;8.90;99.90;;;9.65;100.00;97932.50;5016617;28;20470;-85
2022/11/08 01:20:08;;;;;;;8.40;5.17;;;8.90;99.90;;;9.66;100.00;97929.69;5018123;28;20464;-86
2022/11/08 01:22:36;;;;;;;10.13;4.80;;;8.90;99.90;;;9.65;100.00;97935.09;5018752;28;20498;-85
2022/11/08 01:25:06;;;;;;;10.90;5.73;;;8.80;99.90;;;9.66;100.00;97928.88;5018163;28;20553;-85
2022/11/08 01:27:35;;;;;;;24.53;5.20;;;8.80;99.90;;;9.65;100.00;97928.06;5017465;28;20511;-85
2022/11/08 01:30:06;;;;;;;12.50;5.20;;;8.80;99.90;;;9.68;100.00;97929.50;5015530;28;20938;-85
2022/11/08 01:32:34;;;;;;;15.07;5.23;;;8.80;99.90;;;9.71;100.00;97923.91;5018821;28;20458;-85
2022/11/08 01:35:03;;;;;;;44.17;6.30;;;8.90;99.90;;;9.74;100.00;97936.59;5020282;28;20957;-85
2022/11/08 01:37:32;;;;;;;16.90;5.30;;;9.00;99.90;;;9.74;100.00;97929.56;5017042;28;20550;-84
2022/11/08 01:40:02;;;;;;;30.40;4.77;;;9.00;99.90;;;9.77;100.00;97936.22;5019130;28;20542;-84
2022/11/08 01:42:32;;;;;;;34.90;5.50;;;9.00;99.90;;;9.78;100.00;97930.03;5018039;28;20625;-85
2022/11/08 01:45:07;;;;;;;13.73;4.70;;;9.10;99.90;;;9.79;100.00;97934.25;5018719;28;20733;-85
2022/11/08 01:47:36;;;;;;;36.63;4.83;;;9.10;99.90;;;9.79;100.00;97929.03;5021219;28;20550;-85
2022/11/08 01:50:11;;;;;;;16.77;5.30;;;9.20;99.90;;;9.77;100.00;97923.16;5019200;28;20442;-84
2022/11/08 01:52:45;;;;;;;18.23;3.90;;;9.20;99.90;;;9.78;100.00;97925.59;5018085;28;20438;-85
2022/11/08 01:55:21;;;;;;;15.73;4.37;;;9.20;99.90;;;9.76;100.00;97916.31;5017986;28;21063;-85
2022/11/08 01:57:56;;;;;;;12.73;3.83;;;9.20;99.90;;;9.76;100.00;97917.13;5017765;28;20886;-85
2022/11/08 02:00:26;;;;;;;19.00;5.77;;;9.30;99.90;;;9.76;100.00;97916.31;5018017;28;20954;-85
2022/11/08 02:02:59;;;;;;;20.10;4.80;;;9.20;99.90;;;9.78;100.00;97903.91;5017438;28;20876;-85
2022/11/08 02:05:30;;;;;;;15.80;5.13;;;9.20;99.90;;;9.78;100.00;97909.13;5019761;28;20879;-85
2022/11/08 02:08:07;;;;;;;8.83;3.90;;;9.20;99.90;;;9.77;100.00;97910.09;5017171;28;20443;-85
2022/11/08 02:10:39;;;;;;;16.93;4.60;;;9.20;99.90;;;9.73;100.00;97906.25;5018968;28;20536;-85
2022/11/08 02:13:12;;;;;;;6.03;3.80;;;9.20;99.90;;;9.73;100.00;97901.03;5018714;28;20549;-85
2022/11/08 02:15:44;;;;;;;7.90;4.27;;;9.20;99.90;;;9.72;100.00;97894.22;5018803;28;20461;-85
2022/11/08 02:18:16;;;;;;;12.53;4.10;;;9.10;99.90;;;9.72;100.00;97891.59;5016452;28;20466;-85
2022/11/08 02:21:01;;;;;;;13.73;4.30;;;9.20;99.90;;;9.73;100.00;97888.78;5019387;28;20466;-85
2022/11/08 02:23:45;;;;;;;10.37;3.57;;;9.20;99.90;;;9.73;100.00;97885.34;5018218;28;20493;-85
2022/11/08 02:26:16;;;;;;;11.70;3.90;;;9.10;99.90;;;9.73;100.00;97885.34;5016614;28;20506;-85
2022/11/08 02:28:49;;;;;;;5.77;3.43;;;9.10;99.90;;;9.74;100.00;97871.31;5016692;28;20511;-85
2022/11/08 02:31:19;;;;;;;13.93;4.80;;;9.10;99.90;;;9.73;100.00;97875.72;5016852;28;20475;-86
2022/11/08 02:33:49;;;;;;;10.93;4.57;;;9.00;99.90;;;9.72;100.00;97868.88;5018966;28;20458;-85
2022/11/08 02:36:22;;;;;;;14.97;4.10;;;9.00;99.90;;;9.72;100.00;97868.88;5018594;28;20480;-85
2022/11/08 02:38:57;;;;;;;17.40;5.00;;;9.00;99.90;;;9.74;100.00;97869.53;5017374;28;21091;-85
2022/11/08 02:41:26;;;;;;;6.57;4.00;;;9.00;99.90;;;9.75;100.00;97868.53;5016648;28;20988;-85
2022/11/08 02:43:56;;;;;;;25.33;4.90;;;9.10;99.90;;;9.76;100.00;97866.72;5016923;28;20494;-85
2022/11/08 02:46:26;;;;;;;10.67;4.60;;;9.00;99.90;;;9.76;100.00;97864.91;5017555;28;20516;-84
2022/11/08 02:48:55;;;;;;;11.87;5.60;;;9.00;99.90;;;9.75;100.00;97862.50;5017225;28;20518;-84
2022/11/08 02:51:24;;;;;;;21.13;5.00;;;9.00;99.90;;;9.76;100.00;97864.09;5014163;28;20505;-86
2022/11/08 02:53:54;;;;;;;17.60;4.90;;;9.00;99.90;;;9.76;100.00;97856.25;5017466;28;20497;-85
2022/11/08 02:56:23;;;;;;;21.93;4.97;;;9.00;99.90;;;9.77;100.00;97848.25;5016801;28;20478;-85
2022/11/08 02:58:51;;;;;;;22.57;5.37;;;9.10;99.90;;;9.78;100.00;97852.50;5016598;28;20558;-85
2022/11/08 03:01:20;;;;;;;13.83;4.83;;;9.10;99.90;;;9.80;100.00;97842.66;5016715;28;20462;-85
2022/11/08 03:03:50;;;;;;;22.57;4.27;;;9.10;99.90;;;9.81;100.00;97835.63;5015648;28;20987;-85
2022/11/08 03:06:18;;;;;;;28.90;5.00;;;9.20;99.90;;;9.78;100.00;97826.38;5015694;28;20807;-85
2022/11/08 03:08:47;;;;;;;26.83;4.60;;;9.20;99.90;;;9.77;100.00;97829.97;5018550;28;20617;-85
2022/11/08 03:11:17;;;;;;;22.60;5.03;;;9.10;99.90;;;9.77;100.00;97829.97;5014522;28;20505;-85
2022/11/08 03:13:45;;;;;;;16.33;4.43;;;9.10;99.90;;;9.78;100.00;97821.16;5015921;28;20549;-85
2022/11/08 03:16:14;;;;;;;22.40;5.63;;;9.10;99.90;;;9.77;100.00;97814.31;5016576;28;20475;-84
2022/11/08 03:18:44;;;;;;;19.17;4.60;;;9.10;99.90;;;9.77;100.00;97816.91;5016554;28;20500;-85
2022/11/08 03:21:12;;;;;;;29.60;4.63;;;9.10;99.90;;;9.74;100.00;97822.53;5017242;28;20516;-85
2022/11/08 03:23:41;;;;;;;14.33;4.40;;;9.00;99.90;;;9.73;100.00;97820.09;5017121;28;20466;-85
2022/11/08 03:26:10;;;;;;;15.60;5.17;;;9.00;99.90;;;9.71;100.00;97814.25;5014540;28;20561;-85
2022/11/08 03:28:40;;;;;;;19.37;5.17;;;8.90;99.90;;;9.71;100.00;97814.25;5017043;28;20457;-85
2022/11/08 03:31:09;;;;;;;31.00;5.13;;;8.90;99.90;;;9.70;100.00;97812.63;5015865;28;20536;-85
2022/11/08 03:33:38;;;;;;;28.40;5.50;;;8.90;99.90;;;9.68;100.00;97810.22;5014364;28;20467;-85
2022/11/08 03:36:08;;;;;;;12.30;4.90;;;8.90;99.90;;;9.69;100.00;97811.00;5015133;28;21149;-85
2022/11/08 03:38:37;;;;;;;11.83;4.43;;;8.90;99.90;;;9.71;100.00;97809.03;5018011;28;21216;-85
2022/11/08 03:41:06;;;;;;;16.27;4.50;;;8.90;99.90;;;9.72;100.00;97810.66;5015675;28;20535;-85
2022/11/08 03:43:35;;;;;;;14.50;6.07;;;8.90;99.90;;;9.72;100.00;97811.44;5015640;28;20945;-85
2022/11/08 03:46:05;;;;;;;9.10;4.50;;;8.90;99.90;;;9.74;100.00;97806.84;5017038;28;20506;-85
2022/11/08 03:48:35;;;;;;;12.00;5.00;;;9.00;99.90;;;9.74;100.00;97806.84;5017087;28;20475;-84
2022/11/08 03:51:04;;;;;;;16.60;5.80;;;9.00;99.90;;;9.74;100.00;97816.50;5018488;28;20450;-84
2022/11/08 03:53:33;;;;;;;41.27;5.90;;;9.00;99.90;;;9.76;100.00;97815.28;5021012;28;20449;-84
2022/11/08 03:56:01;;;;;;;19.27;5.67;;;9.00;99.90;;;9.77;100.00;97813.50;5019852;28;20860;-83
2022/11/08 03:58:31;;;;;;;25.50;6.20;;;9.00;99.90;;;9.78;100.00;97809.91;5020030;28;20488;-85
2022/11/08 04:01:05;;;;;;;15.20;4.90;;;9.10;99.90;;;9.77;100.00;97805.66;5019474;28;20512;-85
2022/11/08 04:03:34;;;;;;;11.50;4.50;;;9.00;99.90;;;9.76;100.00;97804.03;5020501;28;20450;-84
2022/11/08 04:06:04;;;;;;;12.77;5.27;;;9.00;99.90;;;9.75;100.00;97799.84;5021981;28;20527;-82
2022/11/08 04:08:33;;;;;;;14.20;5.03;;;9.00;99.90;;;9.73;100.00;97807.03;5018423;28;20489;-84
2022/11/08 04:15:13;;;;;;;10.13;4.40;;;9.00;99.90;;;9.72;100.00;97785.34;5019992;28;20580;-85
2022/11/08 04:16:38;;;;;;;14.67;4.63;;;9.00;99.90;;;9.70;100.00;97783.91;5019043;28;20512;-84
2022/11/08 04:21:58;;;;;;;8.43;5.20;;;9.00;99.90;;;9.68;100.00;97778.09;4961330;28;20472;-82
2022/11/08 04:24:27;;;;;;;16.20;4.60;;;9.00;99.90;;;9.69;100.00;97790.13;5019665;28;20480;-84
2022/11/08 04:26:56;;;;;;;23.27;4.60;;;9.00;99.90;;;9.70;100.00;97791.75;5019694;28;20525;-84
2022/11/08 04:29:25;;;;;;;26.03;4.20;;;9.00;99.90;;;9.68;100.00;97791.13;5021580;28;20526;-85
2022/11/08 04:31:55;;;;;;;21.63;3.67;;;9.00;99.90;;;9.68;100.00;97772.84;5018598;28;20459;-85
2022/11/08 04:34:24;;;;;;;31.30;5.00;;;9.00;99.90;;;9.68;100.00;97780.69;5018021;28;20522;-85
2022/11/08 04:36:53;;;;;;;22.07;4.10;;;9.00;99.90;;;9.68;100.00;97794.56;5015281;28;20865;-85
2022/11/08 04:39:21;;;;;;;19.20;3.93;;;9.00;99.90;;;9.64;100.00;97787.28;5017189;28;20514;-85
2022/11/08 04:41:50;;;;;;;55.30;11.47;;;9.00;99.90;;;9.55;100.00;97779.56;5018460;28;20467;-80
2022/11/08 04:44:20;;;;;;;45.37;4.20;;;8.90;99.90;;;9.48;100.00;97783.09;5019106;28;21040;-86
2022/11/08 04:46:48;;;;;;;43.87;3.77;;;8.90;99.90;;;9.42;100.00;97774.22;5021884;28;20454;-85
2022/11/08 04:49:19;;;;;;;9.23;4.00;;;8.80;99.90;;;9.38;100.00;97770.38;5021038;28;20479;-86
2022/11/08 04:51:48;;;;;;;15.27;2.83;;;8.70;99.90;;;9.36;100.00;97767.16;5019282;28;20565;-85
2022/11/08 04:54:17;;;;;;;14.33;3.33;;;8.70;99.90;;;9.36;100.00;97759.31;5021216;28;20510;-85
2022/11/08 04:56:45;;;;;;;18.43;3.13;;;8.70;99.90;;;9.38;100.00;97751.28;5019287;28;20575;-86
2022/11/08 04:59:15;;;;;;;29.43;3.83;;;8.70;99.90;;;9.36;100.00;97753.28;5021651;28;20557;-85
2022/11/08 05:01:45;;;;;;;9.80;3.47;;;8.70;99.90;;;9.35;100.00;97741.22;5019943;28;20862;-85
2022/11/08 05:04:13;;;;;;;39.10;4.20;;;8.60;99.90;;;9.34;100.00;97737.81;5019941;28;20467;-86
2022/11/08 05:06:43;;;;;;;36.60;3.80;;;8.60;99.90;;;9.29;100.00;97736.75;5019303;28;20455;-86
2022/11/08 05:09:12;;;;;;;11.90;3.20;;;8.60;99.90;;;9.27;100.00;97738.72;5018093;28;20463;-85
2022/11/08 05:11:42;;;;;;;27.53;4.17;;;8.50;99.90;;;9.25;100.00;97746.75;5020433;28;20795;-85
2022/11/08 05:14:11;;;;;;;49.47;4.57;;;8.50;99.90;;;9.21;100.00;97760.34;5019583;28;20498;-85
2022/11/08 05:16:40;;;;;;;13.57;4.10;;;8.50;99.90;;;9.20;100.00;97749.09;5017919;28;20470;-86
2022/11/08 05:19:09;;;;;;;27.77;6.30;;;8.50;99.90;;;9.19;100.00;97725.84;5020249;28;20565;-84
2022/11/08 05:24:29;;;;;;;34.70;3.53;;;8.40;99.90;;;9.18;100.00;97735.47;5017273;28;20473;-89
2022/11/08 05:26:58;;;;;;;48.23;4.50;;;8.50;99.90;;;9.18;100.00;97719.81;5017410;28;20561;-85
2022/11/08 05:29:26;;;;;;;111.87;5.20;;;8.50;99.90;;;9.18;100.00;97709.38;5017436;28;20549;-84
2022/11/08 05:31:55;;;;;;;19.13;4.17;;;8.40;99.90;;;9.17;100.00;97696.50;5019080;28;20492;-84
2022/11/08 05:34:24;;;;;;;46.03;11.57;;;8.40;99.90;;;9.17;100.00;97697.31;5019016;28;20525;-85
2022/11/08 05:36:54;;;;;;;22.00;4.40;;;8.40;99.90;;;9.19;100.00;97699.75;5021423;28;20931;-85
2022/11/08 05:39:24;;;;;;;76.23;4.20;;;8.40;99.90;;;9.16;100.00;97719.19;5018750;28;20556;-85
2022/11/08 05:42:00;;;;;;;18.03;5.13;;;8.40;99.90;;;9.13;100.00;97719.53;5021833;28;20466;-85
2022/11/08 05:44:28;;;;;;;16.63;3.60;;;8.40;99.90;;;9.14;100.00;97729.00;5020464;28;20852;-85
2022/11/08 05:46:57;;;;;;;24.87;4.00;;;8.40;99.90;;;9.09;100.00;97721.72;5018796;28;20460;-85
2022/11/08 05:49:26;;;;;;;9.50;3.37;;;8.40;99.90;;;9.05;100.00;97719.69;5019833;28;20503;-85
2022/11/08 05:51:56;;;;;;;35.70;4.10;;;8.30;99.90;;;9.06;100.00;97716.06;5018091;28;21024;-84
2022/11/08 05:54:25;;;;;;;16.43;2.80;;;8.30;99.90;;;9.05;100.00;97724.91;5021145;28;20873;-84
2022/11/08 05:56:53;;;;;;;7.13;2.43;;;8.30;99.90;;;9.04;100.00;97716.25;5021109;28;20549;-85
2022/11/08 05:59:23;;;;;;;3.80;2.70;;;8.30;99.90;;;8.99;100.00;97723.00;5019413;28;20455;-85
2022/11/08 06:01:51;;;;;;;4.10;2.50;;;8.20;99.90;;;8.91;100.00;97710.91;5019842;28;20512;-84
2022/11/08 06:04:21;;;;;;;2.20;1.90;;;8.10;99.90;;;8.86;100.00;97715.88;5016485;28;20462;-84
2022/11/08 06:06:50;;;;;;;3.33;2.47;;;8.10;99.90;;;8.81;100.00;97717.41;5020299;28;20447;-85
2022/11/08 06:09:21;;;;;;;2.43;2.00;;;8.00;99.90;;;8.78;100.00;97705.53;5020689;28;20535;-86
2022/11/08 06:11:50;;;;;;;2.30;1.90;;;8.10;99.90;;;8.74;100.00;97706.91;5021299;28;20984;-85
2022/11/08 06:14:20;;;;;;;4.40;2.47;;;8.00;99.90;;;8.64;100.00;97708.19;5019251;28;20466;-84
2022/11/08 06:16:48;;;;;;;2.87;2.10;;;7.90;99.90;;;8.54;100.00;97709.28;5018618;28;20446;-86
2022/11/08 06:19:17;;;;;;;11.73;2.13;;;7.80;99.90;;;8.56;100.00;97704.72;5021544;28;20466;-85
2022/11/08 06:21:46;;;;;;;2.60;2.30;;;7.80;99.90;;;8.54;100.00;97693.63;5019914;28;20455;-85
2022/11/08 06:24:16;;;;;;;2.37;1.80;;;7.80;99.90;;;8.54;100.00;97701.47;5018838;28;20856;-85
2022/11/08 06:26:47;;;;;;;4.90;2.20;;;7.80;99.90;;;8.49;100.00;97709.03;5019612;28;20442;-85
2022/11/08 06:29:17;;;;;;;8.43;2.37;;;7.70;99.90;;;8.45;100.00;97707.78;5021638;28;20485;-85
2022/11/08 06:31:46;;;;;;;42.80;3.47;;;7.70;99.90;;;8.46;100.00;97709.41;5020132;28;20505;-85
2022/11/08 06:34:15;;;;;;;4.57;2.33;;;7.60;99.90;;;8.46;100.00;97703.38;5019182;28;20450;-85
2022/11/08 06:36:43;;;;;;;33.20;2.60;;;7.70;99.90;;;8.43;100.00;97709.75;5017432;28;20458;-85
2022/11/08 06:39:12;;;;;;;6.67;2.57;;;7.60;99.90;;;8.42;100.00;97709.94;5017208;28;20462;-84
2022/11/08 06:41:41;;;;;;;11.57;2.80;;;7.60;99.90;;;8.44;100.00;97705.34;5017652;28;20457;-85
2022/11/08 06:44:11;;;;;;;8.47;2.60;;;7.60;99.90;;;8.39;100.00;97705.91;5016591;28;20446;-85
2022/11/08 06:46:39;;;;;;;2.30;1.93;;;7.50;99.90;;;8.40;100.00;97709.31;5018466;28;20453;-85
2022/11/08 06:49:08;;;;;;;4.17;2.07;;;7.60;99.90;;;8.33;100.00;97717.03;5017634;28;20449;-85
2022/11/08 06:51:37;;;;;;;6.40;2.03;;;7.50;99.90;;;8.32;100.00;97717.22;5016687;28;20531;-84
2022/11/08 06:54:07;;;;;;;25.13;2.70;;;7.50;99.90;;;8.35;100.00;97706.44;5017603;28;20503;-85
2022/11/08 06:56:38;;;;;;;29.50;2.30;;;7.60;99.90;;;8.29;100.00;97710.59;5020101;28;20537;-84
2022/11/08 06:59:07;;;;;;;7.17;2.73;;;7.50;99.90;;;8.31;100.00;97732.03;5019190;28;20832;-84
2022/11/08 07:01:38;;;;;;;28.33;2.83;;;7.60;99.90;;;8.24;100.00;97720.69;5019952;28;21033;-85
2022/11/08 07:04:14;;;;;;;19.53;2.70;;;7.50;99.90;;;8.19;100.00;97723.00;5020576;28;20453;-84
2022/11/08 07:06:43;;;;;;;16.00;2.60;;;7.50;99.90;;;8.17;100.00;97730.22;5020680;28;20518;-85
2022/11/08 07:09:12;;;;;;;5.57;2.40;;;7.40;99.90;;;8.15;100.00;97727.00;5019874;28;20516;-85
2022/11/08 07:11:41;;;;;;;7.73;2.53;;;7.40;99.90;;;8.14;100.00;97730.56;5019356;28;20514;-85
2022/11/08 07:14:10;;;;;;;2.40;2.17;;;7.30;99.90;;;8.05;100.00;97742.06;5020776;28;21151;-86
2022/11/08 07:16:40;;;;;;;3.30;2.53;;;7.20;99.90;;;8.01;100.00;97741.63;5018917;28;20937;-85
2022/11/08 07:19:09;;;;;;;5.60;2.20;;;7.20;99.90;;;8.02;100.00;97740.59;5020602;28;20451;-85
2022/11/08 07:21:38;;;;;;;3.53;2.70;;;7.20;99.90;;;7.97;100.00;97753.38;5018213;28;20485;-86
2022/11/08 07:24:07;;;;;;;13.57;2.37;;;7.20;99.90;;;7.94;100.00;97750.31;5018174;28;21014;-85
2022/11/08 07:26:36;;;;;;;3.93;2.20;;;7.10;99.90;;;7.89;100.00;97758.66;5020120;28;20531;-86
2022/11/08 07:29:05;;;;;;;17.37;2.47;;;7.10;99.90;;;7.94;100.00;97760.72;5022744;28;20459;-85
2022/11/08 07:31:34;;;;;;;2.50;2.30;;;7.10;99.90;;;7.89;100.00;97766.44;5024441;28;20499;-86
2022/11/08 07:34:04;;;;;;;3.60;2.30;;;7.00;99.90;;;7.85;100.00;97759.16;5021395;28;20449;-86
2022/11/08 07:36:32;;;;;;;9.17;3.20;;;7.00;99.90;;;7.81;100.00;97761.31;5022112;28;20466;-86
2022/11/08 07:39:01;;;;;;;22.97;7.80;;;7.00;99.90;;;7.83;100.00;97766.34;5022727;28;20469;-86
2022/11/08 07:41:35;;;;;;;10.63;4.40;;;7.00;99.90;;;7.88;100.00;97757.00;5023044;28;20481;-86
2022/11/08 07:44:05;;;;;;;12.03;3.83;;;7.10;99.90;;;7.82;100.00;97746.50;5022302;28;20516;-86
2022/11/08 07:46:34;;;;;;;9.73;2.50;;;7.00;99.90;;;7.82;100.00;97756.91;5024018;28;20470;-85
2022/11/08 07:49:05;;;;;;;17.53;4.53;;;7.00;99.90;;;7.88;100.00;97751.03;5022947;28;21005;-86
2022/11/08 07:51:34;;;;;;;11.43;3.37;;;7.10;99.90;;;7.93;100.00;97749.50;5024870;28;20533;-86
2022/11/08 07:54:03;;;;;;;49.50;4.10;;;7.30;99.90;;;8.01;100.00;97752.03;5023366;28;20505;-85
2022/11/08 07:56:32;;;;;;;10.77;2.30;;;7.30;99.90;;;7.98;100.00;97746.38;5020442;28;21046;-85
2022/11/08 07:59:01;;;;;;;41.90;5.27;;;7.30;99.90;;;8.02;100.00;97752.81;5018934;28;20451;-87
2022/11/08 08:01:30;;;;;;;37.30;4.50;;;7.20;99.90;;;8.09;100.00;97756.31;5020679;28;20457;-86
2022/11/08 08:03:59;;;;;;;11.80;3.50;;;7.30;99.90;;;8.17;100.00;97756.25;5018207;28;20496;-85
2022/11/08 08:06:29;;;;;;;24.83;3.77;;;7.40;99.90;;;8.16;100.00;97762.44;5022495;28;20455;-86
2022/11/08 08:08:58;;;;;;;21.77;3.30;;;7.50;99.90;;;8.11;100.00;97762.19;5021767;28;20442;-86
2022/11/08 08:11:26;;;;;;;100.47;4.10;;;7.40;99.90;;;8.17;100.00;97756.25;5020124;28;20502;-86
2022/11/08 08:14:01;;;;;;;26.70;3.67;;;7.50;99.90;;;8.26;100.00;97760.38;5022185;28;20441;-86
2022/11/08 08:16:30;;;;;;;56.23;4.10;;;7.60;99.90;;;8.21;100.00;97757.50;5023328;28;20479;-86
2022/11/08 08:18:59;;;;;;;42.20;5.37;;;7.50;99.90;;;8.16;100.00;97754.63;5021088;28;20489;-86
2022/11/08 08:21:30;;;;;;;47.67;3.53;;;7.40;99.90;;;8.18;100.00;97757.88;5020776;28;20462;-86
2022/11/08 08:23:59;;;;;;;8.13;3.10;;;7.40;99.90;;;8.13;100.00;97746.38;5018315;28;20581;-86
2022/11/08 08:26:29;;;;;;;21.30;2.93;;;7.30;99.90;;;8.16;100.00;97752.03;5020986;28;20454;-86
2022/11/08 08:28:57;;;;;;;55.13;4.20;;;7.30;99.90;;;8.21;100.00;97754.09;5020662;28;21209;-86
2022/11/08 08:31:26;;;;;;;17.63;3.63;;;7.40;99.90;;;8.28;100.00;97757.59;5022057;28;20533;-85
2022/11/08 08:33:56;;;;;;;23.03;3.43;;;7.50;99.90;;;8.19;100.00;97754.25;5022495;28;20474;-85
2022/11/08 08:36:25;;;;;;;27.23;3.73;;;7.50;99.90;;;8.19;100.00;97754.25;5021380;28;20442;-86
2022/11/08 08:38:55;;;;;;;10.07;3.77;;;7.50;99.90;;;8.20;100.00;97753.28;5020181;28;20537;-86
2022/11/08 08:41:24;;;;;;;3.23;2.80;;;7.40;99.90;;;8.26;100.00;97749.97;5021089;28;20541;-86
2022/11/08 08:43:54;;;;;;;25.47;3.30;;;7.50;99.90;;;8.30;100.00;97743.44;5023058;28;20520;-85
2022/11/08 08:46:22;;;;;;;19.10;2.97;;;7.50;99.90;;;8.29;100.00;97754.88;5021202;28;20497;-86
2022/11/08 08:48:52;;;;;;;4.70;2.93;;;7.50;99.90;;;8.26;100.00;97749.97;5021856;28;20515;-86
2022/11/08 08:51:21;;;;;;;14.60;3.37;;;7.40;99.90;;;8.26;100.00;97739.53;5021776;28;20455;-86
2022/11/08 08:53:49;;;;;;;19.27;2.87;;;7.50;99.90;;;8.32;100.00;97754.50;5021219;28;20545;-86
2022/11/08 08:56:19;;;;;;;6.73;3.30;;;7.50;99.90;;;8.33;100.00;97758.69;5023492;28;20895;-85
2022/11/08 08:58:49;;;;;;;10.23;3.07;;;7.50;99.90;;;8.41;100.00;97757.81;5020812;28;20516;-86
2022/11/08 09:01:38;;;;;;;9.23;4.10;;;7.60;99.90;;;8.50;100.00;97746.31;5022957;28;20450;-85
2022/11/08 09:04:07;;;;;;;6.23;3.70;;;7.70;99.90;;;8.57;100.00;97745.38;5020934;28;20543;-86
2022/11/08 09:06:36;;;;;;;6.10;4.27;;;7.90;99.90;;;8.64;100.00;97744.69;5020040;28;20942;-84
2022/11/08 09:09:05;;;;;;;5.20;3.73;;;7.90;99.90;;;8.68;100.00;97741.50;5020916;28;20457;-85
2022/11/08 09:11:36;;;;;;;7.77;3.93;;;8.00;99.90;;;8.74;100.00;97743.41;5021632;28;20450;-85
2022/11/08 09:14:04;;;;;;;7.43;3.90;;;8.00;99.90;;;8.77;100.00;97743.03;5020991;28;20950;-85
2022/11/08 09:16:33;;;;;;;3.53;2.90;;;8.10;99.90;;;8.81;100.00;97743.50;5021173;28;20471;-85
2022/11/08 09:19:01;;;;;;;5.67;3.50;;;8.20;99.90;;;8.83;100.00;97744.09;5021804;28;20489;-85
2022/11/08 09:21:30;;;;;;;6.00;2.67;;;8.20;99.90;;;8.82;100.00;97739.88;5019438;28;20517;-85
2022/11/08 09:23:59;;;;;;;5.33;2.67;;;8.10;99.90;;;8.83;100.00;97738.88;5018998;28;20525;-85
2022/11/08 09:26:28;;;;;;;4.33;2.83;;;8.20;99.90;;;8.87;100.00;97729.72;5020392;28;20831;-84
2022/11/08 09:29:00;;;;;;;7.40;3.50;;;8.20;99.90;;;8.91;100.00;97734.38;5019942;28;20487;-84
2022/11/08 09:31:29;;;;;;;4.10;2.70;;;8.20;99.90;;;8.94;100.00;97735.81;5020695;28;20776;-85
2022/11/08 09:33:58;;;;;;;3.57;3.10;;;8.20;99.90;;;8.98;100.00;97739.66;5020562;28;21498;-84
2022/11/08 09:36:27;;;;;;;5.13;4.30;;;8.30;99.90;;;9.03;100.00;97737.28;5022280;28;20508;-84
2022/11/08 09:38:56;;;;;;;4.30;3.80;;;8.40;99.90;;;9.12;100.00;97743.22;5020082;28;20469;-84
2022/11/08 09:41:58;;;;;;;5.93;3.90;;;8.50;99.90;;;9.18;100.00;97740.66;5018243;28;20459;-84
2022/11/08 09:45:08;;;;;;;6.27;3.67;;;8.60;99.90;;;9.23;100.00;97742.72;5017309;28;20504;-85
2022/11/08 09:47:41;;;;;;;4.20;3.40;;;8.60;99.90;;;9.29;100.00;97739.38;4992980;28;20473;-84
2022/11/08 09:50:21;;;;;;;5.47;4.17;;;8.60;99.90;;;9.34;100.00;97748.25;5018112;28;20962;-85
2022/11/08 09:52:58;;;;;;;4.50;3.40;;;8.80;99.90;;;9.40;100.00;97744.91;5021421;28;20530;-84
2022/11/08 09:55:36;;;;;;;7.03;3.90;;;8.80;99.90;;;9.46;100.00;97749.38;5020359;28;20477;-85
2022/11/08 09:58:26;;;;;;;5.67;4.03;;;8.90;99.90;;;9.54;100.00;97740.63;5019393;28;20466;-85
2022/11/08 10:00:57;;;;;;;7.87;3.47;;;8.90;99.90;;;9.65;100.00;97736.69;5020230;28;20449;-85
2022/11/08 10:03:26;;;;;;;6.30;3.10;;;9.10;99.90;;;9.74;100.00;97746.81;5020426;28;20477;-84
2022/11/08 10:06:33;;;;;;;5.17;3.20;;;9.20;99.90;;;9.85;100.00;97732.44;5015334;28;20531;-83
2022/11/08 10:09:23;;;;;;;4.07;2.50;;;9.40;99.90;;;9.94;100.00;97736.50;5016974;28;20446;-84
2022/11/08 10:12:15;;;;;;;2.37;2.17;;;9.50;99.90;;;10.04;100.00;97732.56;5015884;28;20459;-84
2022/11/08 10:15:14;;;;;;;5.07;3.40;;;9.60;99.90;;;10.15;100.00;97731.25;5017345;28;20474;-85
2022/11/08 10:18:49;;;;;;;2.70;1.93;;;9.70;99.90;;;10.27;100.00;97737.56;5017619;28;20505;-85
2022/11/08 10:21:42;;;;;;;2.50;1.83;;;9.80;99.90;;;10.36;100.00;97731.16;5015644;28;20490;-86
2022/11/08 10:24:21;;;;;;;2.97;2.00;;;9.90;99.90;;;10.43;100.00;97729.41;5017385;28;20450;-85
2022/11/08 10:26:52;;;;;;;4.53;2.20;;;10.00;99.90;;;10.51;100.00;97738.88;5018615;28;20530;-84
2022/11/08 10:29:26;;;;;;;3.43;1.63;;;10.10;99.90;;;10.57;100.00;97733.69;5017397;28;21162;-84
2022/11/08 10:32:03;;;;;;;2.00;1.50;;;10.20;99.90;;;10.65;100.00;97734.53;5019580;28;20938;-84
2022/11/08 10:34:43;;;;;;;4.77;1.70;;;10.30;99.90;;;10.72;100.00;97725.72;5020763;28;20470;-85
2022/11/08 10:37:15;;;;;;;4.37;2.03;;;10.40;99.90;;;10.79;100.00;97725.72;5021307;28;20930;-85
2022/11/08 10:39:55;;;;;;;2.50;2.00;;;10.40;99.90;;;10.86;100.00;97722.13;5020757;28;20489;-85
2022/11/08 10:42:38;;;;;;;3.60;1.80;;;10.50;99.90;;;10.94;100.00;97721.94;5019668;28;20494;-84
2022/11/08 10:45:09;;;;;;;3.27;1.57;;;10.60;99.90;;;11.00;100.00;97723.75;5020030;28;20883;-85
2022/11/08 10:47:40;;;;;;;2.07;1.60;;;10.70;99.90;;;11.07;100.00;97713.34;5019628;28;21165;-84
2022/11/08 10:50:18;;;;;;;5.60;2.00;;;10.70;99.90;;;11.15;100.00;97699.22;5018991;28;20559;-85
2022/11/08 10:52:59;;;;;;;2.53;1.63;;;10.90;99.90;;;11.22;100.00;97700.88;5018944;28;20498;-85
2022/11/08 10:55:32;;;;;;;3.40;1.60;;;10.90;99.90;;;11.31;100.00;97691.03;5019680;28;20519;-84